createdAt,value
2022-08-14T00:02:01.619Z,100682.13
2022-08-14T00:04:34.471Z,100694.47
2022-08-14T00:07:13.946Z,100678.91
2022-08-14T00:10:01.949Z,100680.13
2022-08-14T00:12:39.166Z,100684.91
2022-08-14T00:15:21.876Z,100689.25
2022-08-14T00:17:53.303Z,100692.44
2022-08-14T00:20:30.319Z,100684.88
2022-08-14T00:23:11.920Z,100679.75
2022-08-14T00:25:59.037Z,100676.53
2022-08-14T00:28:32.735Z,100676.16
2022-08-14T00:31:02.425Z,100692.84
2022-08-14T00:33:51.503Z,100684.88
2022-08-14T00:36:37.318Z,100685.72
2022-08-14T00:39:06.495Z,100694.44
2022-08-14T00:41:36.792Z,100692.88
2022-08-14T00:44:08.188Z,100696.81
2022-08-14T00:46:37.775Z,100696.44
2022-08-14T00:49:06.120Z,100696.84
2022-08-14T00:51:37.921Z,100682.53
2022-08-14T00:54:17.089Z,100682.53
2022-08-14T00:56:50.797Z,100675.38
2022-08-14T00:59:25.659Z,100671.78
2022-08-14T01:01:58.225Z,100684.91
2022-08-14T01:04:50.842Z,100676.94
2022-08-14T01:07:21.032Z,100685.28
2022-08-14T01:09:56.436Z,100674.97
2022-08-14T01:12:29.889Z,100669.41
2022-08-14T01:14:59.690Z,100667.81
2022-08-14T01:17:50.005Z,100668.63
2022-08-14T01:20:39.360Z,100661.44
2022-08-14T01:23:16.641Z,100657.88
2022-08-14T01:25:49.066Z,100651.94
2022-08-14T01:28:47.067Z,100640.00
2022-08-14T01:31:16.707Z,100648.34
2022-08-14T01:35:16.054Z,100646.34
2022-08-14T01:36:36.949Z,100640.81
2022-08-14T01:39:15.736Z,100645.56
2022-08-14T01:41:46.775Z,100650.34
2022-08-14T01:44:31.944Z,100642.81
2022-08-14T01:47:11.802Z,100636.03
2022-08-14T01:49:42.714Z,100644.38
2022-08-14T01:52:33.638Z,100638.03
2022-08-14T01:55:01.746Z,100635.25
2022-08-14T01:57:49.620Z,100628.91
2022-08-14T02:00:18.096Z,100631.28
2022-08-14T02:02:46.445Z,100635.25
2022-08-14T02:05:14.703Z,100624.13
2022-08-14T02:07:55.840Z,100634.84
2022-08-14T02:10:36.604Z,100627.28
2022-08-14T02:13:16.105Z,100639.63
2022-08-14T02:15:44.241Z,100625.69
2022-08-14T02:18:15.327Z,100617.72
2022-08-14T02:20:43.010Z,100615.75
2022-08-14T02:23:12.563Z,100613.78
2022-08-14T02:25:43.762Z,100613.38
2022-08-14T02:28:56.302Z,100617.34
2022-08-14T02:31:09.151Z,100610.19
2022-08-14T02:33:39.079Z,100606.22
2022-08-14T02:37:04.411Z,100607.41
2022-08-14T02:38:54.239Z,100621.72
2022-08-14T02:41:21.460Z,100628.84
2022-08-14T02:43:55.785Z,100624.88
2022-08-14T02:46:32.552Z,100628.84
2022-08-14T02:49:06.282Z,100619.31
2022-08-14T02:51:36.660Z,100623.28
2022-08-14T02:54:07.467Z,100628.44
2022-08-14T02:57:16.255Z,100629.22
2022-08-14T02:59:33.778Z,100630.41
2022-08-14T03:02:03.275Z,100623.66
2022-08-14T03:04:34.486Z,100625.66
2022-08-14T03:07:07.284Z,100631.19
2022-08-14T03:10:25.983Z,100626.84
2022-08-14T03:12:31.550Z,100623.25
2022-08-14T03:15:13.848Z,100624.44
2022-08-14T03:17:56.970Z,100623.22
2022-08-14T03:20:30.510Z,100626.41
2022-08-14T03:23:03.132Z,100632.75
2022-08-14T03:25:37.742Z,100634.75
2022-08-14T03:28:08.367Z,100628.41
2022-08-14T03:30:43.905Z,100631.56
2022-08-14T03:33:12.738Z,100620.44
2022-08-14T03:35:59.915Z,100622.84
2022-08-14T03:39:21.647Z,100618.44
2022-08-14T03:41:24.599Z,100606.16
2022-08-14T03:44:01.241Z,100601.41
2022-08-14T03:46:55.003Z,100606.56
2022-08-14T03:49:29.328Z,100602.56
2022-08-14T03:52:00.819Z,100597.84
2022-08-14T03:54:29.264Z,100598.63
2022-08-14T03:57:02.719Z,100589.09
2022-08-14T03:59:31.515Z,100593.84
2022-08-14T04:02:02.169Z,100583.53
2022-08-14T04:04:31.276Z,100590.28
2022-08-14T04:07:00.214Z,100587.50
2022-08-14T04:09:28.423Z,100578.75
2022-08-14T04:11:58.052Z,100575.59
2022-08-14T04:14:27.574Z,100577.56
2022-08-14T04:16:55.015Z,100586.72
2022-08-14T04:19:24.745Z,100577.97
2022-08-14T04:22:02.049Z,100583.09
2022-08-14T04:24:38.449Z,100588.66
2022-08-14T04:27:12.001Z,100585.09
2022-08-14T04:29:44.841Z,100589.09
2022-08-14T04:33:02.615Z,100585.91
2022-08-14T04:35:01.630Z,100570.06
2022-08-14T04:37:53.973Z,100571.63
2022-08-14T04:40:40.404Z,100572.44
2022-08-14T04:43:32.474Z,100568.50
2022-08-14T04:46:56.577Z,100574.03
2022-08-14T04:49:07.963Z,100577.63
2022-08-14T04:51:37.433Z,100585.19
2022-08-14T04:54:14.561Z,100589.97
2022-08-14T04:56:45.455Z,100596.31
2022-08-14T04:59:12.958Z,100603.44
2022-08-14T05:01:48.697Z,100590.69
2022-08-14T05:04:21.442Z,100598.59
2022-08-14T05:06:54.342Z,100605.72
2022-08-14T05:09:28.807Z,100596.91
2022-08-14T05:11:56.687Z,100600.34
2022-08-14T05:14:45.946Z,100590.53
2022-08-14T05:17:28.860Z,100586.03
2022-08-14T05:21:55.430Z,100596.06
2022-08-14T05:22:56.327Z,100597.09
2022-08-14T05:25:23.770Z,100596.91
2022-08-14T05:27:51.330Z,100594.22
2022-08-14T05:30:22.878Z,100601.31
2022-08-14T05:32:50.455Z,100597.53
2022-08-14T05:35:19.589Z,100596.81
2022-08-14T05:37:50.437Z,100594.59
2022-08-14T05:40:17.599Z,100590.97
2022-08-14T05:42:46.718Z,100590.69
2022-08-14T05:45:20.341Z,100586.31
2022-08-14T05:47:50.893Z,100578.66
2022-08-14T05:50:19.134Z,100584.50
2022-08-14T05:52:50.847Z,100592.84
2022-08-14T05:55:22.651Z,100593.50
2022-08-14T05:57:59.368Z,100591.84
2022-08-14T06:00:36.911Z,100595.44
2022-08-14T06:03:09.879Z,100591.28
2022-08-14T06:05:38.878Z,100612.31
2022-08-14T06:08:31.256Z,100609.94
2022-08-14T06:11:06.784Z,100604.28
2022-08-14T06:13:44.639Z,100620.22
2022-08-14T06:16:17.569Z,100625.41
2022-08-14T06:18:52.481Z,100621.94
2022-08-14T06:21:24.394Z,100627.56
2022-08-14T06:23:53.497Z,100632.28
2022-08-14T06:26:22.131Z,100617.63
2022-08-14T06:28:52.242Z,100631.75
2022-08-14T06:31:22.755Z,100618.13
2022-08-14T06:35:03.560Z,100622.19
2022-08-14T06:36:39.555Z,100616.41
2022-08-14T06:39:09.986Z,100614.78
2022-08-14T06:41:58.522Z,100621.41
2022-08-14T06:44:32.793Z,100625.81
2022-08-14T06:47:05.457Z,100619.50
2022-08-14T06:49:43.492Z,100622.69
2022-08-14T06:52:16.370Z,100626.56
2022-08-14T06:54:44.776Z,100615.16
2022-08-14T06:57:13.285Z,100615.41
2022-08-14T06:59:41.306Z,100615.41
2022-08-14T07:02:28.918Z,100609.47
2022-08-14T07:05:20.904Z,100613.22
2022-08-14T07:07:51.496Z,100605.25
2022-08-14T07:13:22.635Z,100613.81
2022-08-14T07:15:55.107Z,100609.66
2022-08-14T07:18:27.620Z,100601.44
2022-08-14T07:20:57.323Z,100599.06
2022-08-14T07:23:25.965Z,100600.56
2022-08-14T07:25:58.323Z,100600.81
2022-08-14T07:28:29.271Z,100610.59
2022-08-14T07:31:04.370Z,100610.47
2022-08-14T07:33:41.836Z,100615.44
2022-08-14T07:36:26.957Z,100616.56
2022-08-14T07:39:11.968Z,100616.13
2022-08-14T07:41:39.950Z,100602.00
2022-08-14T07:44:32.643Z,100609.28
2022-08-14T07:46:59.180Z,100604.88
2022-08-14T07:49:27.650Z,100608.38
2022-08-14T07:51:55.142Z,100616.28
2022-08-14T07:54:30.584Z,100625.03
2022-08-14T07:57:00.921Z,100618.59
2022-08-14T07:59:41.559Z,100614.31
2022-08-14T08:02:18.994Z,100628.53
2022-08-14T08:04:55.117Z,100612.50
2022-08-14T08:07:29.773Z,100611.59
2022-08-14T08:10:00.857Z,100613.41
2022-08-14T08:12:30.805Z,100600.81
2022-08-14T08:15:02.873Z,100614.53
2022-08-14T08:17:38.634Z,100615.69
2022-08-14T08:20:11.721Z,100617.97
2022-08-14T08:22:47.973Z,100608.22
2022-08-14T08:25:17.811Z,100608.94
2022-08-14T08:27:56.245Z,100619.84
2022-08-14T08:30:24.214Z,100613.97
2022-08-14T08:32:53.509Z,100612.34
2022-08-14T08:35:23.853Z,100614.94
2022-08-14T08:38:01.035Z,100611.47
2022-08-14T08:40:35.977Z,100613.69
2022-08-14T08:43:29.104Z,100617.22
2022-08-14T08:46:02.709Z,100620.59
2022-08-14T08:48:49.852Z,100608.88
2022-08-14T08:51:43.107Z,100608.22
2022-08-14T08:54:20.001Z,100609.06
2022-08-14T08:56:53.747Z,100600.00
2022-08-14T08:59:31.533Z,100590.97
2022-08-14T09:02:10.311Z,100595.53
2022-08-14T09:04:45.383Z,100605.91
2022-08-14T09:07:27.333Z,100608.06
2022-08-14T09:10:00.087Z,100607.78
2022-08-14T09:12:31.630Z,100592.84
2022-08-14T09:15:11.403Z,100585.94
2022-08-14T09:17:41.523Z,100589.25
2022-08-14T09:20:12.324Z,100599.63
2022-08-14T09:22:42.293Z,100598.53
2022-08-14T09:25:12.735Z,100598.09
2022-08-14T09:27:42.612Z,100611.91
2022-08-14T09:30:31.264Z,100590.06
2022-08-14T09:33:11.680Z,100592.47
2022-08-14T09:36:03.564Z,100595.06
2022-08-14T09:38:50.777Z,100600.78
2022-08-14T09:42:20.823Z,100592.91
2022-08-14T09:45:16.874Z,100602.31
2022-08-14T09:47:56.513Z,100595.75
2022-08-14T09:50:26.972Z,100599.84
2022-08-14T09:53:03.827Z,100607.19
2022-08-14T09:55:41.475Z,100609.81
2022-08-14T09:58:23.086Z,100614.88
2022-08-14T10:01:00.842Z,100602.66
2022-08-14T10:03:35.981Z,100604.09
2022-08-14T10:06:21.440Z,100603.97
2022-08-14T10:08:58.208Z,100598.78
2022-08-14T10:11:43.409Z,100589.41
2022-08-14T10:14:35.104Z,100595.28
2022-08-14T10:17:06.970Z,100602.72
2022-08-14T10:19:37.147Z,100593.16
2022-08-14T10:23:14.836Z,100594.03
2022-08-14T10:25:00.725Z,100594.19
2022-08-14T10:27:29.091Z,100592.53
2022-08-14T10:30:01.841Z,100581.75
2022-08-14T10:32:36.572Z,100588.44
2022-08-14T10:35:14.727Z,100580.91
2022-08-14T10:37:50.611Z,100591.28
2022-08-14T10:40:38.604Z,100593.41
2022-08-14T10:43:37.067Z,100589.94
2022-08-14T10:47:37.235Z,100590.63
2022-08-14T10:49:04.358Z,100580.91
2022-08-14T10:51:39.784Z,100578.97
2022-08-14T10:54:17.131Z,100579.59
2022-08-14T10:57:15.863Z,100588.63
2022-08-14T10:59:53.930Z,100574.22
2022-08-14T11:02:44.921Z,100574.84
2022-08-14T11:05:19.895Z,100583.00
2022-08-14T11:07:56.397Z,100574.47
2022-08-14T11:10:27.690Z,100571.59
2022-08-14T11:12:57.313Z,100578.94
2022-08-14T11:15:29.615Z,100573.44
2022-08-14T11:18:01.218Z,100571.22
2022-08-14T11:20:31.280Z,100579.00
2022-08-14T11:23:01.414Z,100578.44
2022-08-14T11:25:41.283Z,100571.63
2022-08-14T11:28:18.859Z,100579.81
2022-08-14T11:30:54.254Z,100586.56
2022-08-14T11:33:35.052Z,100584.41
2022-08-14T11:36:10.293Z,100564.94
2022-08-14T11:38:46.788Z,100557.38
2022-08-14T11:41:17.328Z,100560.16
2022-08-14T11:43:55.826Z,100555.69
2022-08-14T11:46:30.830Z,100552.53
2022-08-14T11:49:06.550Z,100542.56
2022-08-14T11:51:50.795Z,100546.25
2022-08-14T11:54:33.613Z,100558.13
2022-08-14T11:57:04.552Z,100547.47
2022-08-14T11:59:34.093Z,100563.78
2022-08-14T12:03:00.384Z,100558.44
2022-08-14T12:04:59.198Z,100554.31
2022-08-14T12:07:26.742Z,100559.50
2022-08-14T12:09:57.532Z,100552.00
2022-08-14T12:12:36.135Z,100558.53
2022-08-14T12:15:07.003Z,100548.31
2022-08-14T12:17:53.014Z,100552.28
2022-08-14T12:20:33.959Z,100559.97
2022-08-14T12:23:02.869Z,100552.50
2022-08-14T12:25:35.060Z,100554.41
2022-08-14T12:28:10.510Z,100556.22
2022-08-14T12:30:56.719Z,100555.34
2022-08-14T12:33:27.142Z,100561.88
2022-08-14T12:36:20.541Z,100563.75
2022-08-14T12:38:54.187Z,100555.47
2022-08-14T12:41:24.069Z,100552.97
2022-08-14T12:44:06.304Z,100543.56
2022-08-14T12:46:43.614Z,100539.25
2022-08-14T12:49:17.693Z,100545.78
2022-08-14T12:51:56.942Z,100533.31
2022-08-14T12:54:28.700Z,100533.41
2022-08-14T12:57:08.642Z,100539.00
2022-08-14T12:59:42.650Z,100540.94
2022-08-14T13:02:26.256Z,100539.38
2022-08-14T13:04:58.285Z,100524.09
2022-08-14T13:07:32.455Z,100535.16
2022-08-14T13:10:12.942Z,100541.00
2022-08-14T13:15:45.843Z,100542.28
2022-08-14T13:18:16.058Z,100554.00
2022-08-14T13:20:48.151Z,100547.03
2022-08-14T13:23:24.612Z,100546.28
2022-08-14T13:25:59.847Z,100541.09
2022-08-14T13:28:33.676Z,100533.81
2022-08-14T13:31:11.052Z,100543.91
2022-08-14T13:33:40.437Z,100542.47
2022-08-14T13:36:09.211Z,100542.81
2022-08-14T13:38:37.402Z,100547.69
2022-08-14T13:41:06.361Z,100534.94
2022-08-14T13:43:36.858Z,100530.03
2022-08-14T13:46:19.971Z,100537.50
2022-08-14T13:48:48.495Z,100542.31
2022-08-14T13:51:17.299Z,100543.81
2022-08-14T13:54:08.193Z,100549.16
2022-08-14T13:56:41.971Z,100541.78
2022-08-14T13:59:10.341Z,100546.25
2022-08-14T14:01:43.882Z,100540.06
2022-08-14T14:04:19.058Z,100536.91
2022-08-14T14:06:49.774Z,100539.34
2022-08-14T14:09:32.738Z,100542.75
2022-08-14T14:12:38.089Z,100532.78
2022-08-14T14:14:56.073Z,100545.31
2022-08-14T14:17:25.371Z,100531.53
2022-08-14T14:19:59.196Z,100541.38
2022-08-14T14:22:34.327Z,100529.25
2022-08-14T14:25:19.603Z,100522.97
2022-08-14T14:27:53.532Z,100525.69
2022-08-14T14:30:52.712Z,100522.78
2022-08-14T14:33:42.442Z,100521.63
2022-08-14T14:36:01.943Z,100517.63
2022-08-14T14:38:34.147Z,100516.25
2022-08-14T14:41:05.575Z,100517.28
2022-08-14T14:43:36.304Z,100521.78
2022-08-14T14:46:09.387Z,100507.66
2022-08-14T14:48:46.616Z,100521.09
2022-08-14T14:51:22.190Z,100518.78
2022-08-14T14:53:49.944Z,100510.91
2022-08-14T14:56:49.954Z,100523.44
2022-08-14T14:59:05.569Z,100524.28
2022-08-14T15:01:36.671Z,100508.50
2022-08-14T15:04:20.318Z,100509.66
2022-08-14T15:06:49.344Z,100512.16
2022-08-14T15:09:17.962Z,100516.81
2022-08-14T15:11:47.073Z,100514.72
2022-08-14T15:14:55.895Z,100506.91
2022-08-14T15:17:02.780Z,100512.06
2022-08-14T15:19:29.885Z,100509.94
2022-08-14T15:21:58.376Z,100509.09
2022-08-14T15:24:27.022Z,100511.94
2022-08-14T15:26:58.520Z,100514.16
2022-08-14T15:29:26.345Z,100505.53
2022-08-14T15:31:54.001Z,100503.94
2022-08-14T15:34:44.604Z,100500.31
2022-08-14T15:37:11.009Z,100501.22
2022-08-14T15:39:41.347Z,100492.25
2022-08-14T15:42:15.606Z,100494.00
2022-08-14T15:44:56.951Z,100484.53
2022-08-14T15:47:29.252Z,100495.72
2022-08-14T15:50:01.855Z,100488.50
2022-08-14T15:52:37.278Z,100493.34
2022-08-14T15:55:12.848Z,100496.41
2022-08-14T15:58:01.463Z,100501.41
2022-08-14T16:00:49.614Z,100501.47
2022-08-14T16:03:27.705Z,100492.63
2022-08-14T16:06:11.118Z,100502.19
2022-08-14T16:08:58.618Z,100503.44
2022-08-14T16:11:28.851Z,100498.66
2022-08-14T16:14:01.139Z,100507.59
2022-08-14T16:16:50.547Z,100496.16
2022-08-14T16:19:20.402Z,100506.97
2022-08-14T16:22:01.404Z,100501.38
2022-08-14T16:25:02.634Z,100492.63
2022-08-14T16:30:25.481Z,100486.72
2022-08-14T16:32:57.336Z,100477.19
2022-08-14T16:35:42.370Z,100476.53
2022-08-14T16:38:15.295Z,100490.19
2022-08-14T16:40:24.352Z,100497.84
2022-08-14T16:41:16.914Z,100491.81
2022-08-14T16:43:45.577Z,100498.19
2022-08-14T16:46:17.439Z,100500.84
2022-08-14T16:48:57.368Z,100503.13
2022-08-14T16:51:28.060Z,100499.47
2022-08-14T16:53:59.287Z,100498.34
2022-08-14T16:56:30.794Z,100503.63
2022-08-14T16:59:30.469Z,100498.09
2022-08-14T17:02:12.009Z,100507.22
2022-08-14T17:04:41.101Z,100515.28
2022-08-14T17:07:14.505Z,100506.84
2022-08-14T17:09:48.857Z,100512.97
2022-08-14T17:12:34.882Z,100520.19
2022-08-14T17:15:14.910Z,100513.53
2022-08-14T17:17:45.059Z,100519.56
2022-08-14T17:20:54.150Z,100514.81
2022-08-14T17:23:12.389Z,100515.53
2022-08-14T17:25:49.221Z,100510.34
2022-08-14T17:28:52.305Z,100505.19
2022-08-14T17:34:00.568Z,100499.28
2022-08-14T17:36:30.956Z,100503.66
2022-08-14T17:39:11.962Z,100514.78
2022-08-14T17:42:02.868Z,100513.19
2022-08-14T17:44:33.674Z,100521.59
2022-08-14T17:47:10.353Z,100515.59
2022-08-14T17:49:52.243Z,100518.00
2022-08-14T17:52:34.516Z,100525.16
2022-08-14T17:56:01.224Z,100523.16
2022-08-14T17:58:20.730Z,100524.81
2022-08-14T18:00:52.128Z,100535.16
2022-08-14T18:03:49.784Z,100538.63
2022-08-14T18:06:39.452Z,100537.41
2022-08-14T18:08:59.146Z,100542.16
2022-08-14T18:11:27.152Z,100536.16
2022-08-14T18:14:31.698Z,100544.88
2022-08-14T18:17:02.261Z,100544.06
2022-08-14T18:19:31.632Z,100552.44
2022-08-14T18:22:24.058Z,100556.00
2022-08-14T18:24:53.248Z,100560.41
2022-08-14T18:27:31.875Z,100568.00
2022-08-14T18:30:31.923Z,100583.13
2022-08-14T18:32:55.221Z,100574.34
2022-08-14T18:35:46.308Z,100587.47
2022-08-14T18:38:55.128Z,100585.50
2022-08-14T18:41:36.560Z,100588.72
2022-08-14T18:44:10.051Z,100590.34
2022-08-14T18:47:10.094Z,100590.38
2022-08-14T18:49:54.493Z,100609.19
2022-08-14T18:52:43.644Z,100602.81
2022-08-14T18:55:20.894Z,100606.84
2022-08-14T18:57:58.096Z,100608.03
2022-08-14T19:00:33.760Z,100606.06
2022-08-14T19:03:08.281Z,100621.22
2022-08-14T19:05:39.083Z,100624.38
2022-08-14T19:08:26.539Z,100620.81
2022-08-14T19:10:54.311Z,100634.38
2022-08-14T19:13:47.913Z,100637.19
2022-08-14T19:16:26.329Z,100645.22
2022-08-14T19:18:53.742Z,100649.72
2022-08-14T19:21:36.855Z,100641.50
2022-08-14T19:24:29.909Z,100648.75
2022-08-14T19:27:19.121Z,100656.44
2022-08-14T19:29:51.300Z,100660.53
2022-08-14T19:32:40.445Z,100663.81
2022-08-14T19:35:19.774Z,100661.88
2022-08-14T19:37:54.019Z,100671.06
2022-08-14T19:40:37.433Z,100663.47
2022-08-14T19:43:06.725Z,100668.66
2022-08-14T19:45:37.280Z,100655.97
2022-08-14T19:48:12.535Z,100658.34
2022-08-14T19:50:41.054Z,100657.19
2022-08-14T19:53:17.668Z,100652.03
2022-08-14T19:55:59.212Z,100656.06
2022-08-14T19:58:54.532Z,100668.03
2022-08-14T20:01:37.379Z,100664.44
2022-08-14T20:04:45.444Z,100672.06
2022-08-14T20:07:01.817Z,100678.84
2022-08-14T20:11:03.176Z,100670.91
2022-08-14T20:12:35.504Z,100672.53
2022-08-14T20:15:21.196Z,100678.50
2022-08-14T20:17:52.208Z,100685.69
2022-08-14T20:20:31.742Z,100694.50
2022-08-14T20:23:11.576Z,100676.19
2022-08-14T20:25:45.264Z,100678.59
2022-08-14T20:28:32.215Z,100676.22
2022-08-14T20:31:17.933Z,100680.22
2022-08-14T20:34:24.527Z,100692.19
2022-08-14T20:37:09.769Z,100685.00
2022-08-14T20:39:54.696Z,100672.31
2022-08-14T20:42:55.506Z,100676.31
2022-08-14T20:45:29.099Z,100663.97
2022-08-14T20:48:07.331Z,100660.38
2022-08-14T20:50:45.043Z,100669.13
2022-08-14T20:53:32.699Z,100666.34
2022-08-14T20:56:04.582Z,100661.19
2022-08-14T20:58:51.157Z,100669.56
2022-08-14T21:01:19.348Z,100671.13
2022-08-14T21:03:58.429Z,100678.69
2022-08-14T21:06:28.126Z,100675.50
2022-08-14T21:09:01.105Z,100679.47
2022-08-14T21:11:30.478Z,100680.28
2022-08-14T21:14:19.762Z,100684.25
2022-08-14T21:16:58.999Z,100687.47
2022-08-14T21:19:27.244Z,100683.91
2022-08-14T21:21:55.675Z,100685.84
2022-08-14T21:24:39.795Z,100689.47
2022-08-14T21:27:20.248Z,100689.47
2022-08-14T21:29:55.720Z,100690.66
2022-08-14T21:32:47.257Z,100692.66
2022-08-14T21:35:18.902Z,100681.94
2022-08-14T21:37:47.760Z,100696.66
2022-08-14T21:40:42.328Z,100690.69
2022-08-14T21:43:18.277Z,100692.69
2022-08-14T21:45:54.078Z,100687.88
2022-08-14T21:48:29.909Z,100691.47
2022-08-14T21:51:52.826Z,100703.84
2022-08-14T21:53:58.562Z,100701.81
2022-08-14T21:56:38.254Z,100703.03
2022-08-14T21:59:17.787Z,100705.81
2022-08-14T22:02:00.361Z,100696.66
2022-08-14T22:04:40.480Z,100695.09
2022-08-14T22:07:16.919Z,100704.69
2022-08-14T22:09:55.478Z,100697.91
2022-08-14T22:12:57.751Z,100695.50
2022-08-14T22:15:17.775Z,100699.91
2022-08-14T22:17:45.433Z,100711.84
2022-08-14T22:20:20.697Z,100705.50
2022-08-14T22:22:48.170Z,100709.09
2022-08-14T22:25:34.119Z,100708.69
2022-08-14T22:28:05.939Z,100708.28
2022-08-14T22:30:35.621Z,100707.91
2022-08-14T22:33:05.986Z,100710.69
2022-08-14T22:35:38.260Z,100714.69
2022-08-14T22:38:37.572Z,100718.63
2022-08-14T22:41:25.007Z,100721.84
2022-08-14T22:43:41.148Z,100725.41
2022-08-14T22:46:14.827Z,100718.28
2022-08-14T22:48:45.437Z,100715.88
2022-08-14T22:51:17.836Z,100719.06
2022-08-14T22:53:48.445Z,100711.91
2022-08-14T22:56:20.199Z,100725.03
2022-08-14T22:58:53.872Z,100724.25
2022-08-14T23:01:56.293Z,100714.72
2022-08-14T23:04:35.193Z,100721.09
2022-08-14T23:07:22.047Z,100721.09
2022-08-14T23:09:56.953Z,100725.84
2022-08-14T23:12:29.978Z,100713.13
2022-08-14T23:14:59.189Z,100716.69
2022-08-14T23:17:38.940Z,100714.31
2022-08-14T23:20:19.111Z,100721.50
2022-08-14T23:22:51.131Z,100719.50
2022-08-14T23:25:44.592Z,100720.31
2022-08-14T23:28:33.633Z,100708.75
2022-08-14T23:30:56.110Z,100699.19
2022-08-14T23:33:23.304Z,100704.38
2022-08-14T23:35:58.983Z,100720.69
2022-08-14T23:38:30.534Z,100705.19
2022-08-14T23:41:00.708Z,100709.94
2022-08-14T23:43:31.261Z,100711.53
2022-08-14T23:45:59.177Z,100709.97
2022-08-14T23:48:28.557Z,100702.41
2022-08-14T23:50:56.909Z,100698.00
2022-08-14T23:53:47.458Z,100702.00
2022-08-14T23:56:32.065Z,100704.78
2022-08-14T23:59:01.706Z,100696.84
